Time;durP1;ratioP1;P1;durP2;ratioP2;P2;SDS_P1;SDS_P2;PMS_P1;PMS_P2;Temp;Humidity;BMP_temperature;BMP_pressure;BME280_temperature;BME280_humidity;BME280_pressure;Samples;Min_cycle;Max_cycle;Signal;HPM_P1;HPM_P2
2021/09/06 00:00:40;;;;;;;17.87;15.57;;;14.50;99.90;;;;;;4921632;29;20678;-75
2021/09/06 00:03:08;;;;;;;17.87;14.97;;;14.40;99.90;;;;;;4942849;28;20701;-75
2021/09/06 00:05:33;;;;;;;17.30;15.50;;;14.40;99.90;;;;;;4943604;28;20643;-75
2021/09/06 00:08:04;;;;;;;18.00;16.00;;;14.30;99.90;;;;;;4936786;28;20727;-75
2021/09/06 00:10:41;;;;;;;18.67;16.23;;;14.30;99.90;;;;;;4944142;28;20215;-75
2021/09/06 00:13:11;;;;;;;18.93;16.10;;;14.30;99.90;;;;;;4944485;28;20707;-76
2021/09/06 00:15:40;;;;;;;20.70;16.93;;;14.30;99.90;;;;;;4924352;28;20650;-75
2021/09/06 00:18:09;;;;;;;17.80;15.20;;;14.30;99.90;;;;;;4942767;28;20637;-75
2021/09/06 00:20:41;;;;;;;17.53;15.53;;;14.30;99.90;;;;;;4925383;28;21158;-74
2021/09/06 00:23:10;;;;;;;17.90;16.00;;;14.30;99.90;;;;;;4945013;28;20750;-75
2021/09/06 00:25:42;;;;;;;18.87;16.77;;;14.30;99.90;;;;;;4937884;28;21038;-75
2021/09/06 00:28:10;;;;;;;20.73;15.83;;;14.30;99.90;;;;;;4941540;29;21176;-74
2021/09/06 00:30:39;;;;;;;18.20;15.33;;;14.30;99.90;;;;;;4938868;28;20635;-74
2021/09/06 00:33:05;;;;;;;17.83;15.87;;;14.20;99.90;;;;;;4937159;28;20746;-75
2021/09/06 00:35:30;;;;;;;15.97;14.23;;;14.20;99.90;;;;;;4936347;28;20647;-75
2021/09/06 00:37:56;;;;;;;19.20;15.70;;;14.00;99.90;;;;;;4941857;28;20721;-76
2021/09/06 00:40:22;;;;;;;16.50;14.80;;;14.00;99.90;;;;;;4942791;28;20335;-75
2021/09/06 00:42:50;;;;;;;17.60;14.60;;;14.10;99.90;;;;;;4938332;29;20219;-75
2021/09/06 00:45:19;;;;;;;17.83;15.87;;;14.00;99.90;;;;;;4942356;28;20223;-74
2021/09/06 00:47:46;;;;;;;17.37;15.57;;;14.00;99.90;;;;;;4940219;28;21341;-75
2021/09/06 00:50:14;;;;;;;17.37;15.23;;;14.00;99.90;;;;;;4918048;28;20642;-74
2021/09/06 00:52:42;;;;;;;19.13;15.77;;;14.00;99.90;;;;;;4936858;28;21211;-74
2021/09/06 00:55:09;;;;;;;18.00;15.80;;;13.90;99.90;;;;;;4938741;28;20665;-74
2021/09/06 00:57:35;;;;;;;16.33;14.63;;;13.90;99.90;;;;;;4939593;28;20677;-75
2021/09/06 01:00:04;;;;;;;17.70;14.23;;;13.80;99.90;;;;;;4942524;28;20619;-76
2021/09/06 01:02:32;;;;;;;19.00;16.10;;;13.80;99.90;;;;;;4937414;28;20611;-75
2021/09/06 01:04:57;;;;;;;16.10;14.40;;;13.80;99.90;;;;;;4938823;28;20658;-75
2021/09/06 01:07:29;;;;;;;16.80;14.83;;;13.80;99.90;;;;;;4942427;28;20607;-75
2021/09/06 01:09:54;;;;;;;18.50;15.50;;;13.70;99.90;;;;;;4939781;28;20259;-74
2021/09/06 01:12:20;;;;;;;16.97;15.27;;;13.60;99.90;;;;;;4934956;28;20643;-74
2021/09/06 01:14:48;;;;;;;18.63;15.00;;;13.50;99.90;;;;;;4922199;28;20294;-74
2021/09/06 01:17:13;;;;;;;18.43;14.53;;;13.50;99.90;;;;;;4922198;29;20187;-75
2021/09/06 01:19:41;;;;;;;17.13;15.33;;;13.60;99.90;;;;;;4935247;28;20995;-76
2021/09/06 01:22:09;;;;;;;16.60;14.80;;;13.50;99.90;;;;;;4938390;28;20207;-75
2021/09/06 01:24:35;;;;;;;17.30;15.50;;;13.60;99.90;;;;;;4936553;28;20623;-75
2021/09/06 01:27:01;;;;;;;20.13;15.57;;;13.60;99.90;;;;;;4939339;28;20658;-76
2021/09/06 01:29:30;;;;;;;18.60;14.90;;;13.60;99.90;;;;;;4916164;29;20192;-75
2021/09/06 01:31:55;;;;;;;18.40;16.00;;;13.50;99.90;;;;;;4940024;28;20419;-74
2021/09/06 01:34:23;;;;;;;15.40;13.90;;;13.50;99.90;;;;;;4941047;28;20831;-77
2021/09/06 01:36:54;;;;;;;16.73;14.90;;;13.50;99.90;;;;;;4923480;28;20188;-76
2021/09/06 01:39:22;;;;;;;18.97;15.17;;;13.50;99.90;;;;;;4941761;28;21151;-75
2021/09/06 01:41:48;;;;;;;16.53;14.77;;;13.50;99.90;;;;;;4939655;28;20693;-74
2021/09/06 01:44:16;;;;;;;16.97;15.13;;;13.50;99.90;;;;;;4943867;28;20639;-74
2021/09/06 01:46:41;;;;;;;16.57;14.80;;;13.40;99.90;;;;;;4938429;28;20223;-76
2021/09/06 01:49:07;;;;;;;16.67;14.87;;;13.50;99.90;;;;;;4940420;28;20704;-75
2021/09/06 01:51:33;;;;;;;18.93;15.03;;;13.40;99.90;;;;;;4930652;29;20278;-75
2021/09/06 01:53:58;;;;;;;15.73;13.90;;;13.40;99.90;;;;;;4919286;29;20279;-75
2021/09/06 01:56:24;;;;;;;17.47;14.67;;;13.40;99.90;;;;;;4922147;28;20246;-75
2021/09/06 01:58:50;;;;;;;18.87;15.50;;;13.20;99.90;;;;;;4940185;28;20561;-76
2021/09/06 02:01:18;;;;;;;17.67;15.27;;;13.20;99.90;;;;;;4953784;28;20675;-76
2021/09/06 02:03:49;;;;;;;18.40;15.40;;;13.20;99.90;;;;;;4952058;29;20223;-74
2021/09/06 02:06:15;;;;;;;17.90;14.30;;;13.10;99.90;;;;;;4945452;28;20637;-77
2021/09/06 02:08:48;;;;;;;18.00;15.47;;;13.20;99.90;;;;;;4947866;28;20615;-74
2021/09/06 02:11:14;;;;;;;18.07;14.90;;;13.20;99.90;;;;;;4922307;28;20658;-76
2021/09/06 02:13:39;;;;;;;18.30;14.47;;;13.20;99.90;;;;;;4942449;28;20650;-74
2021/09/06 02:16:05;;;;;;;15.73;14.13;;;13.20;99.90;;;;;;4932295;28;20685;-73
2021/09/06 02:18:31;;;;;;;16.57;14.80;;;13.20;99.90;;;;;;4926298;29;20235;-74
2021/09/06 02:21:01;;;;;;;17.10;14.47;;;13.20;99.90;;;;;;4942201;28;20805;-73
2021/09/06 02:23:26;;;;;;;18.00;14.33;;;13.00;99.90;;;;;;4941022;28;20269;-75
2021/09/06 02:25:52;;;;;;;18.17;15.30;;;13.00;99.90;;;;;;4935761;28;20634;-75
2021/09/06 02:28:22;;;;;;;17.33;15.23;;;13.10;99.90;;;;;;4941735;28;20220;-74
2021/09/06 02:30:48;;;;;;;17.20;14.10;;;13.00;99.90;;;;;;4941910;28;20211;-76
2021/09/06 02:33:13;;;;;;;17.80;15.00;;;13.00;99.90;;;;;;4941905;28;20611;-75
2021/09/06 02:35:39;;;;;;;17.10;15.03;;;13.10;99.90;;;;;;4943106;28;20215;-74
2021/09/06 02:38:04;;;;;;;16.33;14.63;;;13.10;99.90;;;;;;4931482;28;20200;-74
2021/09/06 02:40:30;;;;;;;16.40;14.70;;;13.00;99.90;;;;;;4940115;28;20633;-74
2021/09/06 02:42:58;;;;;;;16.60;14.20;;;12.90;99.90;;;;;;4937168;28;20247;-74
2021/09/06 02:45:24;;;;;;;15.23;13.57;;;13.00;99.90;;;;;;4930986;28;20227;-74
2021/09/06 02:47:49;;;;;;;16.50;14.77;;;13.00;99.90;;;;;;4941116;28;20613;-76
2021/09/06 02:50:15;;;;;;;16.40;14.33;;;13.00;99.90;;;;;;4942199;28;20750;-75
2021/09/06 02:52:41;;;;;;;16.07;13.87;;;13.00;99.90;;;;;;4940612;28;20200;-74
2021/09/06 02:55:08;;;;;;;16.60;14.90;;;12.90;99.90;;;;;;4916551;28;20647;-74
2021/09/06 02:57:33;;;;;;;16.87;14.50;;;13.00;99.90;;;;;;4941687;28;21181;-76
2021/09/06 03:00:01;;;;;;;15.70;13.53;;;13.00;99.90;;;;;;4940636;28;20711;-74
2021/09/06 03:02:28;;;;;;;15.77;12.97;;;12.90;99.90;;;;;;4939962;29;20215;-75
2021/09/06 03:04:54;;;;;;;17.60;15.13;;;12.90;99.90;;;;;;4916538;28;20734;-74
2021/09/06 03:07:20;;;;;;;19.60;16.20;;;12.90;99.90;;;;;;4940089;28;20688;-75
2021/09/06 03:09:45;;;;;;;15.27;13.50;;;12.90;99.90;;;;;;4930732;28;20214;-73
2021/09/06 03:12:11;;;;;;;16.93;14.73;;;12.90;99.90;;;;;;4930171;29;20296;-74
2021/09/06 03:14:36;;;;;;;17.77;14.77;;;12.90;99.90;;;;;;4941220;28;20266;-74
2021/09/06 03:17:02;;;;;;;19.30;15.23;;;12.90;99.90;;;;;;4944141;29;20199;-75
2021/09/06 03:19:28;;;;;;;14.57;13.07;;;12.80;99.90;;;;;;4939383;28;20244;-74
2021/09/06 03:21:55;;;;;;;15.70;13.40;;;12.80;99.90;;;;;;4941970;28;20220;-74
2021/09/06 03:24:21;;;;;;;16.20;14.33;;;12.80;99.90;;;;;;4934086;28;20222;-76
2021/09/06 03:26:47;;;;;;;19.00;14.87;;;12.70;99.90;;;;;;4923027;29;20742;-74
2021/09/06 03:29:12;;;;;;;15.47;13.77;;;12.70;99.90;;;;;;4935521;28;20208;-74
2021/09/06 03:31:43;;;;;;;15.70;13.53;;;12.80;99.90;;;;;;4942799;28;20254;-74
2021/09/06 03:34:08;;;;;;;16.60;13.80;;;12.80;99.90;;;;;;4925454;29;20610;-75
2021/09/06 03:36:36;;;;;;;15.10;13.50;;;12.80;99.90;;;;;;4940999;28;20637;-73
2021/09/06 03:39:02;;;;;;;15.70;13.50;;;12.80;99.90;;;;;;4937994;28;20586;-74
2021/09/06 03:41:33;;;;;;;16.20;14.17;;;12.70;99.90;;;;;;4938246;28;20721;-74
2021/09/06 03:43:58;;;;;;;15.90;13.63;;;12.70;99.90;;;;;;4942843;28;20243;-73
2021/09/06 03:46:24;;;;;;;15.90;13.00;;;12.70;99.90;;;;;;4939391;28;20650;-73
2021/09/06 03:48:50;;;;;;;14.93;13.33;;;12.70;99.90;;;;;;4924023;29;20359;-73
2021/09/06 03:51:18;;;;;;;16.03;13.20;;;12.60;99.90;;;;;;4941315;28;20302;-74
2021/09/06 03:53:43;;;;;;;13.87;12.20;;;12.60;99.90;;;;;;4917949;29;20195;-74
2021/09/06 03:56:09;;;;;;;16.37;14.10;;;12.70;99.90;;;;;;4942390;28;20639;-75
2021/09/06 03:58:34;;;;;;;15.17;13.40;;;12.70;99.90;;;;;;4924700;29;20195;-74
2021/09/06 04:01:02;;;;;;;16.00;14.10;;;12.70;99.90;;;;;;4924781;29;20214;-73
2021/09/06 04:03:30;;;;;;;15.17;13.67;;;12.70;99.90;;;;;;4936919;28;20215;-74
2021/09/06 04:05:56;;;;;;;14.07;12.57;;;12.70;99.90;;;;;;4926310;28;22062;-73
2021/09/06 04:08:25;;;;;;;15.07;13.27;;;12.70;99.90;;;;;;4941639;28;20630;-74
2021/09/06 04:10:52;;;;;;;15.30;13.70;;;12.70;99.90;;;;;;4922254;28;20242;-75
2021/09/06 04:13:20;;;;;;;14.00;12.50;;;12.80;99.90;;;;;;4939889;28;20622;-75
2021/09/06 04:15:47;;;;;;;15.63;13.97;;;12.80;99.90;;;;;;4941399;28;20643;-75
2021/09/06 04:18:16;;;;;;;14.60;13.03;;;12.80;99.90;;;;;;4942094;28;20905;-74
2021/09/06 04:20:45;;;;;;;16.27;13.43;;;12.80;99.90;;;;;;4939227;28;20665;-75
2021/09/06 04:23:12;;;;;;;16.80;13.93;;;12.90;99.90;;;;;;4942938;29;20717;-74
2021/09/06 04:25:37;;;;;;;18.70;14.90;;;12.80;99.90;;;;;;4939157;28;21244;-74
2021/09/06 04:28:05;;;;;;;20.57;15.80;;;12.80;99.90;;;;;;4938910;28;20611;-73
2021/09/06 04:30:31;;;;;;;19.50;16.00;;;12.80;99.90;;;;;;4937299;28;20238;-74
2021/09/06 04:32:59;;;;;;;22.40;16.77;;;12.90;99.90;;;;;;4916585;28;21304;-75
2021/09/06 04:35:24;;;;;;;21.00;16.90;;;12.90;99.90;;;;;;4933214;28;20227;-76
2021/09/06 04:37:50;;;;;;;19.67;16.60;;;12.90;99.90;;;;;;4938929;28;20618;-75
2021/09/06 04:40:15;;;;;;;20.13;16.70;;;12.90;99.90;;;;;;4938334;28;20225;-75
2021/09/06 04:42:41;;;;;;;22.70;18.40;;;12.90;99.90;;;;;;4950313;28;20218;-75
2021/09/06 04:45:07;;;;;;;23.70;17.50;;;12.80;99.90;;;;;;4947216;28;20682;-75
2021/09/06 04:47:33;;;;;;;24.17;17.30;;;12.90;99.90;;;;;;4922041;29;20192;-74
2021/09/06 04:49:58;;;;;;;25.03;18.57;;;12.90;99.90;;;;;;4939343;28;20623;-76
2021/09/06 04:52:31;;;;;;;22.30;17.43;;;12.90;99.90;;;;;;4938728;28;20207;-73
2021/09/06 04:54:57;;;;;;;23.50;17.70;;;12.90;99.90;;;;;;4938699;28;20677;-76
2021/09/06 04:57:22;;;;;;;26.10;18.60;;;13.00;99.90;;;;;;4940214;28;20629;-74
2021/09/06 04:59:48;;;;;;;25.93;17.60;;;13.00;99.90;;;;;;4936557;28;20199;-74
2021/09/06 05:02:13;;;;;;;27.43;18.70;;;13.00;99.90;;;;;;4925167;29;20299;-75
2021/09/06 05:04:39;;;;;;;26.20;18.87;;;13.00;99.90;;;;;;4937376;28;20192;-75
2021/09/06 05:07:04;;;;;;;26.43;18.53;;;12.90;99.90;;;;;;4939917;28;21051;-74
2021/09/06 05:09:30;;;;;;;27.67;18.10;;;13.00;99.90;;;;;;4935510;28;20759;-74
2021/09/06 05:11:58;;;;;;;34.13;20.23;;;13.00;99.90;;;;;;4939223;28;20960;-75
2021/09/06 05:14:23;;;;;;;36.00;19.17;;;13.00;99.90;;;;;;4940670;28;20198;-75
2021/09/06 05:16:49;;;;;;;28.37;20.33;;;13.00;99.90;;;;;;4944061;29;20615;-74
2021/09/06 05:19:19;;;;;;;27.80;18.97;;;13.00;99.90;;;;;;4932268;28;20191;-75
2021/09/06 05:21:45;;;;;;;26.13;18.27;;;13.00;99.90;;;;;;4917617;29;20211;-74
2021/09/06 05:24:11;;;;;;;24.87;18.50;;;13.00;99.90;;;;;;4948240;29;20994;-74
2021/09/06 05:26:36;;;;;;;20.53;17.33;;;13.00;99.90;;;;;;4938495;28;20597;-74
2021/09/06 05:29:02;;;;;;;21.67;18.10;;;13.00;99.90;;;;;;4944186;28;20191;-75
2021/09/06 05:31:27;;;;;;;24.50;18.20;;;13.00;99.90;;;;;;4945710;28;20207;-74
2021/09/06 05:33:55;;;;;;;22.40;18.77;;;13.00;99.90;;;;;;4923849;29;20183;-74
2021/09/06 05:36:21;;;;;;;20.40;17.37;;;13.00;99.90;;;;;;4921971;28;20703;-75
2021/09/06 05:38:46;;;;;;;20.50;17.30;;;13.10;99.90;;;;;;4939807;28;20611;-75
2021/09/06 05:41:15;;;;;;;21.20;17.97;;;13.10;99.90;;;;;;4940474;28;20859;-75
2021/09/06 05:43:43;;;;;;;18.10;16.20;;;13.10;99.90;;;;;;4926170;29;20211;-74
2021/09/06 05:46:08;;;;;;;19.20;17.10;;;13.10;99.90;;;;;;4935778;28;20635;-75
2021/09/06 05:48:36;;;;;;;19.93;17.93;;;13.10;99.90;;;;;;4941238;28;21924;-74
2021/09/06 05:51:04;;;;;;;18.90;16.80;;;13.10;99.90;;;;;;4921161;29;20682;-75
2021/09/06 05:53:30;;;;;;;19.47;15.97;;;13.20;99.90;;;;;;4937802;28;20718;-74
2021/09/06 05:55:58;;;;;;;18.53;16.27;;;13.20;99.90;;;;;;4947412;28;21073;-74
2021/09/06 05:58:26;;;;;;;19.13;17.10;;;13.30;99.90;;;;;;4950195;29;20191;-74
2021/09/06 06:00:51;;;;;;;19.20;17.20;;;13.30;99.90;;;;;;4944440;28;20650;-74
2021/09/06 06:03:17;;;;;;;18.10;16.30;;;13.30;99.90;;;;;;4937851;28;21574;-75
2021/09/06 06:05:42;;;;;;;18.80;16.80;;;13.40;99.90;;;;;;4923230;28;20302;-75
2021/09/06 06:08:08;;;;;;;19.00;16.40;;;13.40;99.90;;;;;;4928731;29;20194;-74
2021/09/06 06:10:33;;;;;;;18.53;16.63;;;13.40;99.90;;;;;;4940900;28;20207;-75
2021/09/06 06:12:59;;;;;;;20.20;18.10;;;13.50;99.90;;;;;;4937631;28;20655;-76
2021/09/06 06:15:24;;;;;;;20.90;17.37;;;13.50;99.90;;;;;;4934585;28;20346;-75
2021/09/06 06:17:50;;;;;;;20.00;17.93;;;13.50;99.90;;;;;;4937331;28;20326;-75
2021/09/06 06:20:19;;;;;;;19.63;17.27;;;13.60;99.90;;;;;;4938895;28;20211;-74
2021/09/06 06:22:45;;;;;;;19.77;17.50;;;13.60;99.90;;;;;;4937729;28;20214;-74
2021/09/06 06:25:11;;;;;;;20.60;18.07;;;13.70;99.90;;;;;;4944622;28;20774;-74
2021/09/06 06:27:36;;;;;;;19.17;16.50;;;13.70;99.90;;;;;;4947278;29;20722;-75
2021/09/06 06:30:02;;;;;;;20.33;17.47;;;13.80;99.90;;;;;;4946492;28;20194;-74
2021/09/06 06:32:27;;;;;;;23.50;16.57;;;13.80;99.90;;;;;;4949985;28;20199;-75
2021/09/06 06:34:53;;;;;;;20.80;18.50;;;13.80;99.90;;;;;;4930413;28;20219;-74
2021/09/06 06:37:19;;;;;;;21.10;18.40;;;13.90;99.90;;;;;;4928332;29;20698;-75
2021/09/06 06:39:44;;;;;;;23.13;18.50;;;14.00;99.90;;;;;;4945754;28;20183;-75
2021/09/06 06:42:10;;;;;;;20.30;17.10;;;14.10;99.90;;;;;;4941182;28;20243;-75
2021/09/06 06:44:37;;;;;;;26.23;19.87;;;14.10;99.90;;;;;;4946012;28;20309;-74
2021/09/06 06:47:03;;;;;;;22.50;17.73;;;14.20;99.90;;;;;;4944253;28;20631;-74
2021/09/06 06:49:28;;;;;;;24.90;19.27;;;14.30;99.90;;;;;;4948723;29;20604;-74
2021/09/06 06:51:54;;;;;;;22.30;18.70;;;14.30;99.90;;;;;;4946350;29;20243;-75
2021/09/06 06:54:19;;;;;;;22.87;19.97;;;14.40;99.90;;;;;;4945139;29;20187;-74
2021/09/06 06:56:45;;;;;;;23.20;19.77;;;14.50;99.90;;;;;;4941306;28;20249;-74
2021/09/06 06:59:10;;;;;;;22.67;18.53;;;14.50;99.90;;;;;;4948881;28;20191;-74
2021/09/06 07:01:36;;;;;;;25.30;20.70;;;14.60;99.90;;;;;;4948155;28;20252;-75
2021/09/06 07:04:02;;;;;;;21.73;19.40;;;14.60;99.90;;;;;;4949778;28;20675;-74
2021/09/06 07:06:27;;;;;;;27.93;21.17;;;14.70;99.90;;;;;;4934017;28;20230;-74
2021/09/06 07:08:53;;;;;;;30.03;20.97;;;14.70;99.90;;;;;;4951592;28;20191;-75
2021/09/06 07:11:18;;;;;;;22.40;20.00;;;14.80;99.90;;;;;;4949558;28;20223;-77
2021/09/06 07:13:44;;;;;;;22.03;19.10;;;15.00;99.90;;;;;;4944959;28;20199;-74
2021/09/06 07:16:09;;;;;;;27.13;19.80;;;15.10;99.90;;;;;;4947007;28;20762;-74
2021/09/06 07:18:35;;;;;;;23.30;19.97;;;15.10;99.90;;;;;;4944992;29;20269;-74
2021/09/06 07:21:01;;;;;;;24.57;19.47;;;15.20;99.90;;;;;;4949131;28;20211;-75
2021/09/06 07:23:27;;;;;;;24.57;19.40;;;15.30;99.90;;;;;;4943734;29;20273;-75
2021/09/06 07:25:52;;;;;;;26.70;21.13;;;15.30;99.90;;;;;;4968074;28;20239;-74
2021/09/06 07:28:18;;;;;;;22.57;19.60;;;15.40;99.90;;;;;;4943486;28;20196;-74
2021/09/06 07:30:43;;;;;;;23.93;19.97;;;15.60;99.90;;;;;;4947463;28;20207;-75
2021/09/06 07:33:09;;;;;;;20.40;18.20;;;15.60;99.90;;;;;;4948703;28;20202;-74
2021/09/06 07:35:34;;;;;;;22.27;18.50;;;15.70;99.90;;;;;;4944325;28;20230;-75
2021/09/06 07:38:00;;;;;;;20.77;17.90;;;15.80;99.90;;;;;;4931065;29;20188;-75
2021/09/06 07:40:25;;;;;;;21.40;18.13;;;15.90;99.90;;;;;;4946902;28;20797;-75
2021/09/06 07:42:51;;;;;;;19.10;16.77;;;16.00;99.90;;;;;;4947788;28;20214;-75
2021/09/06 07:45:17;;;;;;;22.00;17.00;;;16.10;99.90;;;;;;4947625;28;20226;-74
2021/09/06 07:47:42;;;;;;;19.70;16.03;;;16.10;99.90;;;;;;4948383;28;20188;-74
2021/09/06 07:50:10;;;;;;;17.80;15.90;;;16.20;99.90;;;;;;4947878;28;20203;-74
2021/09/06 07:52:38;;;;;;;18.97;16.20;;;16.30;99.90;;;;;;4935522;29;20721;-74
2021/09/06 07:55:05;;;;;;;18.80;16.00;;;16.30;99.90;;;;;;4945556;28;20639;-76
2021/09/06 07:57:31;;;;;;;;;;;16.40;99.90;;;;;;4947164;29;20692;-74
2021/09/06 07:59:56;;;;;;;;;;;16.50;99.90;;;;;;4949431;28;20433;-75
2021/09/06 08:02:22;;;;;;;;;;;16.60;99.90;;;;;;4929534;29;19928;-75
2021/09/06 08:04:47;;;;;;;;;;;16.70;99.90;;;;;;4932134;28;19919;-74
2021/09/06 08:07:13;;;;;;;;;;;16.80;99.90;;;;;;4949839;28;19919;-74
2021/09/06 08:09:38;;;;;;;;;;;16.90;99.90;;;;;;4947504;28;19922;-74
2021/09/06 08:12:04;;;;;;;;;;;17.10;99.90;;;;;;4950097;28;19914;-75
2021/09/06 08:14:29;;;;;;;;;;;17.10;99.90;;;;;;4938911;28;20416;-74
2021/09/06 08:16:55;;;;;;;;;;;17.20;99.90;;;;;;4948769;29;20330;-74
2021/09/06 08:19:20;;;;;;;;;;;17.30;99.90;;;;;;4949839;29;19925;-75
2021/09/06 08:21:46;;;;;;;;;;;17.50;99.90;;;;;;4933852;29;19977;-74
2021/09/06 08:24:13;;;;;;;;;;;17.60;99.90;;;;;;4949521;29;19917;-74
2021/09/06 08:26:39;;;;;;;;;;;17.60;99.90;;;;;;4949180;28;19918;-75
2021/09/06 08:29:04;;;;;;;;;;;17.70;99.90;;;;;;4948858;29;19914;-76
2021/09/06 08:31:30;;;;;;;;;;;17.70;99.90;;;;;;4944604;28;19914;-75
2021/09/06 08:33:57;;;;;;;;;;;17.80;99.90;;;;;;4949817;28;20001;-75
2021/09/06 08:36:22;;;;;;;;;;;18.00;99.90;;;;;;4940792;28;20065;-75
2021/09/06 08:38:47;;;;;;;;;;;18.00;99.90;;;;;;4928769;29;20832;-75
2021/09/06 08:41:13;;;;;;;;;;;18.10;99.90;;;;;;4947021;28;19911;-75
2021/09/06 08:43:39;;;;;;;;;;;18.10;99.90;;;;;;4948585;29;19918;-76
2021/09/06 08:46:04;;;;;;;;;;;18.20;99.90;;;;;;4948590;28;19925;-74
2021/09/06 08:48:29;;;;;;;;;;;18.30;99.90;;;;;;4949997;29;20029;-75
2021/09/06 08:50:55;;;;;;;;;;;18.30;99.90;;;;;;4940660;28;20409;-76
2021/09/06 08:53:22;;;;;;;;;;;18.40;99.90;;;;;;4945829;29;19928;-74
2021/09/06 08:55:48;;;;;;;;;;;18.50;99.90;;;;;;4948532;28;20401;-75
2021/09/06 08:58:14;;;;;;;;;;;18.60;99.90;;;;;;4947227;29;19921;-75
2021/09/06 09:00:45;;;;;;;15.20;13.10;;;18.60;99.90;;;;;;4947975;28;24531;-75
2021/09/06 09:03:11;;;;;;;14.27;12.77;;;18.70;99.90;;;;;;4946227;29;20774;-75
2021/09/06 09:05:36;;;;;;;13.90;12.43;;;18.80;99.90;;;;;;4946609;28;20779;-75
2021/09/06 09:08:02;;;;;;;13.27;12.00;;;18.80;99.90;;;;;;4931496;29;21040;-75
2021/09/06 09:10:37;;;;;;;13.30;11.90;;;18.90;99.90;;;;;;4927557;29;20238;-75
2021/09/06 09:13:08;;;;;;;14.73;13.13;;;18.90;99.90;;;;;;4947540;29;20238;-75
2021/09/06 09:15:36;;;;;;;14.00;11.60;;;19.00;99.90;;;;;;4943394;28;20638;-74
2021/09/06 09:18:02;;;;;;;13.47;12.07;;;19.00;99.90;;;;;;4947999;28;20615;-76
2021/09/06 09:20:41;;;;;;;14.20;12.70;;;19.10;99.90;;;;;;4929289;29;20729;-75
2021/09/06 09:23:07;;;;;;;15.00;12.67;;;19.20;99.90;;;;;;4930836;29;20780;-74
2021/09/06 09:25:34;;;;;;;14.07;11.77;;;19.20;99.90;;;;;;4943136;28;20643;-74
2021/09/06 09:28:00;;;;;;;13.83;12.17;;;19.20;99.90;;;;;;4945636;29;20821;-74
2021/09/06 09:30:31;;;;;;;14.00;12.17;;;19.20;99.90;;;;;;4948536;28;20647;-75
2021/09/06 09:33:12;;;;;;;16.60;12.20;;;19.40;99.90;;;;;;4943690;28;20618;-75
2021/09/06 09:35:38;;;;;;;14.10;12.60;;;19.40;99.90;;;;;;4945781;28;20639;-75
2021/09/06 09:38:09;;;;;;;12.80;11.47;;;19.40;99.90;;;;;;4946486;29;20622;-74
2021/09/06 09:40:39;;;;;;;14.23;12.77;;;19.40;99.90;;;;;;4944538;28;20761;-74
2021/09/06 09:43:05;;;;;;;12.30;10.90;;;19.50;99.90;;;;;;4944361;28;20655;-75
2021/09/06 09:45:31;;;;;;;13.73;12.20;;;19.60;99.90;;;;;;4948758;28;20627;-75
2021/09/06 09:47:58;;;;;;;14.37;12.87;;;19.70;99.90;;;;;;4947932;28;20623;-75
2021/09/06 09:50:26;;;;;;;13.03;11.63;;;19.80;99.90;;;;;;4923183;29;20745;-74
2021/09/06 09:52:53;;;;;;;13.40;12.10;;;19.90;99.90;;;;;;4948236;29;20618;-74
2021/09/06 09:55:20;;;;;;;13.20;11.30;;;20.00;99.90;;;;;;4945180;28;20714;-75
2021/09/06 09:57:45;;;;;;;12.27;11.00;;;20.00;99.90;;;;;;4947149;28;21537;-74
2021/09/06 10:00:14;;;;;;;12.10;10.90;;;20.20;99.90;;;;;;4948284;28;20720;-76
2021/09/06 10:02:47;;;;;;;12.10;10.90;;;20.30;99.90;;;;;;4945166;29;20219;-75
2021/09/06 10:05:14;;;;;;;13.07;11.50;;;20.40;99.90;;;;;;4946505;28;20643;-75
2021/09/06 10:07:45;;;;;;;12.93;11.27;;;20.40;99.90;;;;;;4948466;28;20623;-75
2021/09/06 10:10:19;;;;;;;13.90;11.67;;;20.50;99.90;;;;;;4948711;28;20639;-75
2021/09/06 10:13:04;;;;;;;14.67;13.07;;;20.60;99.90;;;;;;4935315;29;20626;-74
2021/09/06 10:15:29;;;;;;;13.07;11.77;;;20.60;99.90;;;;;;4947103;28;20760;-75
2021/09/06 10:17:55;;;;;;;13.80;12.40;;;20.70;99.90;;;;;;4946289;29;20721;-76
2021/09/06 10:20:24;;;;;;;13.50;12.20;;;20.80;99.90;;;;;;4947178;28;20303;-74
2021/09/06 10:23:10;;;;;;;14.10;12.60;;;20.80;99.90;;;;;;4945276;29;20588;-76
2021/09/06 10:25:38;;;;;;;13.80;12.50;;;20.80;99.90;;;;;;4944990;28;20735;-76
2021/09/06 10:28:05;;;;;;;14.20;12.43;;;20.90;99.90;;;;;;4931277;29;21182;-75
2021/09/06 10:30:50;;;;;;;14.33;12.73;;;20.90;99.90;;;;;;4949180;28;20651;-76
2021/09/06 10:33:36;;;;;;;15.27;13.63;;;21.00;99.90;;;;;;4943291;28;20626;-75
2021/09/06 10:36:10;;;;;;;15.00;13.37;;;21.00;99.90;;;;;;4928360;28;20626;-76
2021/09/06 10:38:47;;;;;;;14.67;12.33;;;21.10;99.90;;;;;;4936665;29;20619;-75
2021/09/06 10:41:15;;;;;;;13.80;12.50;;;21.10;99.90;;;;;;4947393;28;20650;-74
2021/09/06 10:43:49;;;;;;;13.97;12.63;;;21.10;99.90;;;;;;4926517;29;20669;-75
2021/09/06 10:46:16;;;;;;;13.10;11.90;;;21.10;99.90;;;;;;4951341;28;20650;-76
2021/09/06 10:48:42;;;;;;;15.33;12.60;;;21.30;99.90;;;;;;4954333;29;21401;-74
2021/09/06 10:51:09;;;;;;;13.80;12.40;;;21.30;99.90;;;;;;4950355;28;20647;-74
2021/09/06 10:53:35;;;;;;;13.10;11.70;;;21.40;99.90;;;;;;4952069;28;20274;-75
2021/09/06 10:56:01;;;;;;;13.70;12.30;;;21.50;99.90;;;;;;4952333;28;20634;-75
2021/09/06 10:58:29;;;;;;;12.37;11.17;;;21.50;99.90;;;;;;4953616;29;20598;-74
2021/09/06 11:01:00;;;;;;;13.27;11.80;;;21.50;99.90;;;;;;4925612;29;20233;-76
2021/09/06 11:03:37;;;;;;;14.70;12.53;;;21.60;99.90;;;;;;4946157;29;20659;-75
2021/09/06 11:06:04;;;;;;;13.00;11.57;;;21.60;99.90;;;;;;4947110;28;20635;-76
2021/09/06 11:08:32;;;;;;;12.03;10.80;;;21.60;99.90;;;;;;4948195;28;20622;-74
2021/09/06 11:11:00;;;;;;;12.83;11.63;;;21.70;99.90;;;;;;4929840;29;21041;-75
2021/09/06 11:13:54;;;;;;;12.30;11.00;;;21.80;99.90;;;;;;4952768;28;21013;-74
2021/09/06 11:16:21;;;;;;;12.10;10.90;;;21.90;99.90;;;;;;4945543;28;20670;-75
2021/09/06 11:18:51;;;;;;;12.97;10.87;;;21.90;99.90;;;;;;4931243;29;20634;-76
2021/09/06 11:21:21;;;;;;;13.30;11.50;;;21.90;99.90;;;;;;4951908;28;20650;-74
2021/09/06 11:23:48;;;;;;;12.23;11.13;;;22.00;99.90;;;;;;4943568;28;20665;-74
2021/09/06 11:26:31;;;;;;;12.47;11.17;;;22.00;99.90;;;;;;4945826;28;20650;-76
2021/09/06 11:28:57;;;;;;;11.30;10.20;;;22.00;99.90;;;;;;4952600;28;20611;-74
2021/09/06 11:31:24;;;;;;;10.77;9.77;;;22.20;99.90;;;;;;4934500;29;20657;-74
2021/09/06 11:34:08;;;;;;;12.23;11.00;;;22.20;99.90;;;;;;4936727;29;21026;-77
2021/09/06 11:36:34;;;;;;;13.57;10.23;;;22.30;99.90;;;;;;4949672;28;20647;-75
2021/09/06 11:39:00;;;;;;;11.70;10.50;;;22.30;99.90;;;;;;4951787;29;21338;-76
2021/09/06 11:41:26;;;;;;;12.10;10.73;;;22.40;99.90;;;;;;4949466;28;20239;-76
2021/09/06 11:43:53;;;;;;;12.07;10.87;;;22.50;99.90;;;;;;4949560;28;20646;-75
2021/09/06 11:46:20;;;;;;;10.67;9.57;;;22.70;99.90;;;;;;4933696;28;20302;-75
2021/09/06 11:48:51;;;;;;;12.03;10.17;;;22.80;99.90;;;;;;4924284;29;20680;-75
2021/09/06 11:51:18;;;;;;;11.57;10.53;;;23.00;99.90;;;;;;4946399;28;20809;-75
2021/09/06 11:54:01;;;;;;;10.63;9.63;;;23.10;99.90;;;;;;4934964;29;21126;-75
2021/09/06 11:56:32;;;;;;;12.97;11.00;;;23.20;99.90;;;;;;4949038;28;20631;-74
2021/09/06 11:59:00;;;;;;;10.83;9.80;;;23.20;99.90;;;;;;4932459;29;20749;-75
2021/09/06 12:01:26;;;;;;;10.80;9.70;;;23.40;99.90;;;;;;4946005;28;20688;-76
2021/09/06 12:03:51;;;;;;;11.30;10.03;;;23.50;99.90;;;;;;4949127;28;20654;-74
2021/09/06 12:06:21;;;;;;;9.80;8.90;;;23.60;99.90;;;;;;4950857;28;20859;-74
2021/09/06 12:08:56;;;;;;;11.93;10.80;;;23.70;99.90;;;;;;4949652;28;20202;-76
2021/09/06 12:11:22;;;;;;;11.03;9.60;;;23.80;99.90;;;;;;4954203;28;20766;-74
2021/09/06 12:13:57;;;;;;;11.20;10.10;;;23.80;99.90;;;;;;4952539;29;20756;-75
2021/09/06 12:16:30;;;;;;;12.47;11.27;;;24.00;99.90;;;;;;4925147;29;20223;-75
2021/09/06 12:18:57;;;;;;;10.80;9.80;;;24.00;99.90;;;;;;4932272;29;20693;-74
2021/09/06 12:21:24;;;;;;;10.87;9.87;;;24.10;99.90;;;;;;4949310;28;21210;-76
2021/09/06 12:23:57;;;;;;;11.30;10.30;;;24.20;99.90;;;;;;4930977;29;20643;-74
2021/09/06 12:26:23;;;;;;;11.00;9.90;;;24.10;99.90;;;;;;4946972;28;20720;-74
2021/09/06 12:28:57;;;;;;;10.60;9.70;;;24.20;99.90;;;;;;4952247;29;20626;-74
2021/09/06 12:31:24;;;;;;;11.00;10.00;;;24.40;99.90;;;;;;4947295;28;20733;-75
2021/09/06 12:33:50;;;;;;;11.00;10.00;;;24.50;99.90;;;;;;4946163;28;20627;-75
2021/09/06 12:36:16;;;;;;;11.40;10.30;;;24.60;99.90;;;;;;4946437;28;21225;-75